createdAt,value
2022-10-21T00:00:08.046Z,3.3
2022-10-21T00:00:28.127Z,2.9
2022-10-21T00:00:48.191Z,3.5
2022-10-21T00:01:08.265Z,3.1
2022-10-21T00:01:28.406Z,2.9
2022-10-21T00:01:48.391Z,2.4
2022-10-21T00:02:08.459Z,2.6
2022-10-21T00:02:28.544Z,2.4
2022-10-21T00:02:48.633Z,3.3
2022-10-21T00:03:08.690Z,2.6
2022-10-21T00:03:28.771Z,2.1
2022-10-21T00:03:48.840Z,2.1
2022-10-21T00:04:08.895Z,2.1
2022-10-21T00:04:28.970Z,2.1
2022-10-21T00:04:49.049Z,2.1
2022-10-21T00:05:09.127Z,2.1
2022-10-21T00:05:29.183Z,2
2022-10-21T00:05:49.269Z,1.6
2022-10-21T00:06:09.353Z,1.4
2022-10-21T00:06:29.442Z,1.4
2022-10-21T00:06:49.533Z,1.4
2022-10-21T00:07:09.579Z,1.4
2022-10-21T00:07:29.655Z,1.5
2022-10-21T00:07:49.761Z,2
2022-10-21T00:08:09.841Z,2.8
2022-10-21T00:08:30.009Z,2.6
2022-10-21T00:08:50.079Z,2.3
2022-10-21T00:09:10.181Z,1.7
2022-10-21T00:09:30.176Z,1.6
2022-10-21T00:09:50.282Z,1.7
2022-10-21T00:10:10.362Z,1.7
2022-10-21T00:10:30.524Z,1.5
2022-10-21T00:10:50.516Z,1.5
2022-10-21T00:11:10.610Z,1.7
2022-10-21T00:11:30.686Z,1.7
2022-10-21T00:11:50.772Z,1.7
2022-10-21T00:12:10.832Z,1.8
2022-10-21T00:12:30.925Z,1.7
2022-10-21T00:12:50.994Z,1.7
2022-10-21T00:13:11.074Z,1.5
2022-10-21T00:13:31.161Z,1.5
2022-10-21T00:13:51.220Z,1.5
2022-10-21T00:14:11.275Z,2
2022-10-21T00:14:31.363Z,1.5
2022-10-21T00:14:53.663Z,1.5
2022-10-21T00:15:11.556Z,1.7
2022-10-21T00:15:31.664Z,1.7
2022-10-21T00:15:51.731Z,2
2022-10-21T00:16:11.838Z,1.9
2022-10-21T00:16:31.886Z,1.8
2022-10-21T00:16:51.960Z,1.7
2022-10-21T00:17:12.027Z,1.7
2022-10-21T00:17:32.104Z,2
2022-10-21T00:17:52.174Z,2
2022-10-21T00:18:12.251Z,2.8
2022-10-21T00:18:32.339Z,2.4
2022-10-21T00:18:52.422Z,2.8
2022-10-21T00:19:12.496Z,2.6
2022-10-21T00:19:32.562Z,2.2
2022-10-21T00:19:52.633Z,1.7
2022-10-21T00:20:12.811Z,2.2
2022-10-21T00:20:34.875Z,2
2022-10-21T00:20:52.842Z,1.9
2022-10-21T00:21:12.916Z,1.8
2022-10-21T00:21:32.977Z,2
2022-10-21T00:21:53.052Z,1.8
2022-10-21T00:22:13.138Z,2
2022-10-21T00:22:33.204Z,1.8
2022-10-21T00:22:53.276Z,1.7
2022-10-21T00:23:13.347Z,2
2022-10-21T00:23:33.402Z,2
2022-10-21T00:23:53.498Z,1.7
2022-10-21T00:24:13.585Z,1.9
2022-10-21T00:24:33.646Z,1.8
2022-10-21T00:24:53.704Z,2
2022-10-21T00:25:13.783Z,1.9
2022-10-21T00:25:33.868Z,2
2022-10-21T00:25:53.926Z,2
2022-10-21T00:26:13.976Z,2
2022-10-21T00:26:37.644Z,2
2022-10-21T00:26:54.154Z,1.8
2022-10-21T00:27:14.209Z,1.8
2022-10-21T00:27:34.303Z,1.8
2022-10-21T00:27:54.340Z,1.8
2022-10-21T00:28:14.415Z,1.7
2022-10-21T00:28:34.486Z,1.7
2022-10-21T00:28:54.567Z,1.7
2022-10-21T00:29:14.662Z,1.8
2022-10-21T00:29:34.697Z,2.6
2022-10-21T00:29:54.773Z,2.2
2022-10-21T00:30:14.831Z,2.4
2022-10-21T00:30:34.904Z,1.8
2022-10-21T00:30:56.322Z,2
2022-10-21T00:31:15.078Z,2.4
2022-10-21T00:31:35.127Z,2.2
2022-10-21T00:31:55.229Z,3
2022-10-21T00:32:15.264Z,2.4
2022-10-21T00:32:35.714Z,2.2
2022-10-21T00:32:59.340Z,2.4
2022-10-21T00:33:15.498Z,1.9
2022-10-21T00:33:35.579Z,1.8
2022-10-21T00:33:55.642Z,2
2022-10-21T00:34:15.693Z,2.8
2022-10-21T00:34:35.742Z,2.4
2022-10-21T00:34:55.821Z,2.2
2022-10-21T00:35:15.891Z,1.8
2022-10-21T00:35:35.963Z,1.8
2022-10-21T00:35:56.013Z,2.8
2022-10-21T00:36:16.098Z,3.3
2022-10-21T00:36:36.134Z,3.9
2022-10-21T00:36:56.200Z,3.4
2022-10-21T00:37:16.293Z,3.4
2022-10-21T00:37:36.617Z,3.8
2022-10-21T00:37:56.393Z,2.6
2022-10-21T00:38:16.529Z,2
2022-10-21T00:38:36.573Z,2.8
2022-10-21T00:38:56.641Z,2.6
2022-10-21T00:39:16.718Z,2.2
2022-10-21T00:39:36.781Z,2.2
2022-10-21T00:39:56.888Z,2.2
2022-10-21T00:40:16.975Z,2
2022-10-21T00:40:37.045Z,2.4
2022-10-21T00:40:57.094Z,2.4
2022-10-21T00:41:17.177Z,2
2022-10-21T00:41:37.243Z,2.2
2022-10-21T00:41:57.296Z,2.4
2022-10-21T00:42:17.406Z,3
2022-10-21T00:42:39.604Z,2.5
2022-10-21T00:42:57.560Z,2.2
2022-10-21T00:43:17.618Z,2.4
2022-10-21T00:43:37.699Z,2.3
2022-10-21T00:43:57.751Z,2.2
2022-10-21T00:44:17.864Z,2
2022-10-21T00:44:37.887Z,2
2022-10-21T00:44:57.956Z,2.4
2022-10-21T00:45:18.029Z,2.8
2022-10-21T00:45:38.077Z,2.8
2022-10-21T00:45:58.145Z,2.6
2022-10-21T00:46:18.206Z,2.4
2022-10-21T00:46:38.264Z,2.4
2022-10-21T00:46:58.334Z,2.8
2022-10-21T00:47:18.407Z,3
2022-10-21T00:47:38.582Z,2.5
2022-10-21T00:47:58.556Z,2.2
2022-10-21T00:48:18.643Z,2.4
2022-10-21T00:48:38.733Z,2.4
2022-10-21T00:48:58.810Z,3
2022-10-21T00:49:18.896Z,2.2
2022-10-21T00:49:38.967Z,2
2022-10-21T00:49:59.054Z,2
2022-10-21T00:50:19.146Z,2.2
2022-10-21T00:50:41.791Z,2.6
2022-10-21T00:50:59.265Z,2.2
2022-10-21T00:51:19.361Z,2.2
2022-10-21T00:51:39.445Z,2.4
2022-10-21T00:51:59.533Z,3
2022-10-21T00:52:19.608Z,2.6
2022-10-21T00:52:39.966Z,2.4
2022-10-21T00:52:59.765Z,2
2022-10-21T00:53:19.847Z,2.1
2022-10-21T00:53:39.916Z,2.4
2022-10-21T00:53:59.995Z,2.8
2022-10-21T00:54:20.073Z,2.4
2022-10-21T00:54:40.183Z,3.2
2022-10-21T00:55:00.251Z,2.7
2022-10-21T00:55:20.321Z,2.6
2022-10-21T00:55:40.386Z,2.6
2022-10-21T00:56:00.504Z,2.4
2022-10-21T00:56:20.535Z,2.2
2022-10-21T00:56:40.639Z,2.2
2022-10-21T00:57:00.685Z,2.2
2022-10-21T00:57:20.761Z,2.6
2022-10-21T00:57:41.196Z,2.4
2022-10-21T00:58:00.948Z,2
2022-10-21T00:58:21.013Z,2
2022-10-21T00:58:41.082Z,2.2
2022-10-21T00:59:01.123Z,1.8
2022-10-21T00:59:21.181Z,1.7
2022-10-21T00:59:41.243Z,1.7
2022-10-21T01:00:01.312Z,1.7
2022-10-21T01:00:21.394Z,1.7
2022-10-21T01:00:41.592Z,2.4
2022-10-21T01:01:01.681Z,2
2022-10-21T01:01:21.826Z,2
2022-10-21T01:01:41.780Z,1.8
2022-10-21T01:02:01.782Z,1.6
2022-10-21T01:02:21.860Z,1.7
2022-10-21T01:02:41.979Z,1.5
2022-10-21T01:03:02.059Z,1.8
2022-10-21T01:03:22.159Z,1.5
2022-10-21T01:03:42.245Z,1.3
2022-10-21T01:04:02.353Z,1.3
2022-10-21T01:04:22.416Z,1.5
2022-10-21T01:04:42.496Z,1.7
2022-10-21T01:05:02.571Z,1.7
2022-10-21T01:05:22.634Z,1.7
2022-10-21T01:05:42.776Z,1.7
2022-10-21T01:06:02.763Z,1.5
2022-10-21T01:06:22.815Z,1.5
2022-10-21T01:06:42.882Z,1.7
2022-10-21T01:07:02.943Z,1.6
2022-10-21T01:07:23.010Z,1.8
2022-10-21T01:07:43.748Z,1.7
2022-10-21T01:08:03.167Z,1.8
2022-10-21T01:08:23.246Z,2
2022-10-21T01:08:43.400Z,1.8
2022-10-21T01:09:03.474Z,1.8
2022-10-21T01:09:23.514Z,2
2022-10-21T01:09:43.599Z,2
2022-10-21T01:10:03.656Z,2.4
2022-10-21T01:10:23.722Z,2.8
2022-10-21T01:10:43.821Z,2.6
2022-10-21T01:11:03.882Z,2.4
2022-10-21T01:11:23.979Z,2.2
2022-10-21T01:11:44.029Z,2
2022-10-21T01:12:04.096Z,2.2
2022-10-21T01:12:24.178Z,2.2
2022-10-21T01:12:44.238Z,2
2022-10-21T01:13:04.323Z,2.4
2022-10-21T01:13:24.390Z,3
2022-10-21T01:13:44.471Z,2.7
2022-10-21T01:14:04.547Z,2.9
2022-10-21T01:14:24.600Z,2.9
2022-10-21T01:14:44.688Z,2.9
2022-10-21T01:15:04.923Z,4
2022-10-21T01:15:24.842Z,3.3
2022-10-21T01:15:44.900Z,3.5
2022-10-21T01:16:05.000Z,3.3
2022-10-21T01:16:25.046Z,2.3
2022-10-21T01:16:48.080Z,2.5
2022-10-21T01:17:11.532Z,3.2
2022-10-21T01:17:44.638Z,2.7
2022-10-21T01:17:45.890Z,2.5
2022-10-21T01:18:05.434Z,2
2022-10-21T01:18:25.493Z,1.9
2022-10-21T01:18:45.571Z,1.8
2022-10-21T01:19:05.655Z,2
2022-10-21T01:19:25.742Z,2.9
2022-10-21T01:19:45.818Z,2.4
2022-10-21T01:20:05.911Z,2.3
2022-10-21T01:20:25.990Z,2.5
2022-10-21T01:20:46.064Z,2.3
2022-10-21T01:21:06.128Z,2
2022-10-21T01:21:26.224Z,2
2022-10-21T01:21:46.285Z,2
2022-10-21T01:22:06.385Z,1.8
2022-10-21T01:22:26.473Z,1.6
2022-10-21T01:22:46.540Z,1.8
2022-10-21T01:23:06.592Z,1.8
2022-10-21T01:23:26.695Z,2.2
2022-10-21T01:23:46.773Z,1.8
2022-10-21T01:24:26.957Z,2.5
2022-10-21T01:24:47.041Z,2.4
2022-10-21T01:25:07.136Z,2.2
2022-10-21T01:25:27.216Z,2
2022-10-21T01:25:47.311Z,2.5
2022-10-21T01:26:07.381Z,2.4
2022-10-21T01:26:27.453Z,2.6
2022-10-21T01:26:47.532Z,2.6
2022-10-21T01:27:07.624Z,2.6
2022-10-21T01:27:27.705Z,2.4
2022-10-21T01:27:47.786Z,2.8
2022-10-21T01:28:07.871Z,2.8
2022-10-21T01:28:27.930Z,3.2
2022-10-21T01:28:48.045Z,3.5
2022-10-21T01:29:08.084Z,2.9
2022-10-21T01:29:28.154Z,3
2022-10-21T01:29:48.208Z,3
2022-10-21T01:30:08.288Z,3
2022-10-21T01:30:28.360Z,2.6
2022-10-21T01:30:48.427Z,2.4
2022-10-21T01:31:08.513Z,2.4
2022-10-21T01:31:28.577Z,2.6
2022-10-21T01:31:48.668Z,2.2
2022-10-21T01:32:08.743Z,2.4
2022-10-21T01:32:28.817Z,1.9
2022-10-21T01:32:48.908Z,1.8
2022-10-21T01:33:29.047Z,1.9
2022-10-21T01:33:49.150Z,2.2
2022-10-21T01:34:09.227Z,2.2
2022-10-21T01:34:29.263Z,2.4
2022-10-21T01:34:49.342Z,2.9
2022-10-21T01:35:09.429Z,3
2022-10-21T01:35:29.614Z,3.3
2022-10-21T01:35:49.601Z,2.6
2022-10-21T01:36:09.657Z,2.1
2022-10-21T01:36:29.751Z,2.6
2022-10-21T01:36:49.821Z,2.6
2022-10-21T01:37:09.873Z,2.5
2022-10-21T01:37:29.992Z,2.4
2022-10-21T01:37:50.147Z,3.5
2022-10-21T01:38:10.128Z,3
2022-10-21T01:38:30.178Z,2.8
2022-10-21T01:38:50.235Z,2.3
2022-10-21T01:39:10.274Z,2.3
2022-10-21T01:39:30.362Z,3.1
2022-10-21T01:39:50.463Z,2.7
2022-10-21T01:40:10.528Z,2.6
2022-10-21T01:40:30.645Z,2.3
2022-10-21T01:40:50.700Z,3.4
2022-10-21T01:41:10.787Z,2.9
2022-10-21T01:41:30.886Z,3.1
2022-10-21T01:41:50.993Z,3.3
2022-10-21T01:42:11.089Z,2.3
2022-10-21T01:42:31.171Z,2.5
2022-10-21T01:42:51.227Z,2.1
2022-10-21T01:43:11.298Z,2.3
2022-10-21T01:43:31.338Z,2.3
2022-10-21T01:43:51.438Z,2.1
2022-10-21T01:44:11.517Z,1.9
2022-10-21T01:44:31.582Z,1.9
2022-10-21T01:44:51.641Z,1.9
2022-10-21T01:45:11.711Z,2.9
2022-10-21T01:45:31.801Z,1.9
2022-10-21T01:45:51.866Z,2.1
2022-10-21T01:46:11.912Z,2.3
2022-10-21T01:46:31.988Z,3.3
2022-10-21T01:46:52.032Z,3.3
2022-10-21T01:47:12.109Z,3
2022-10-21T01:47:32.179Z,3.3
2022-10-21T01:47:52.279Z,2.9
2022-10-21T01:48:12.351Z,2.3
2022-10-21T01:48:32.438Z,2.6
2022-10-21T01:48:52.515Z,2.5
2022-10-21T01:49:12.571Z,2.9
2022-10-21T01:49:32.637Z,4.3
2022-10-21T01:49:52.718Z,4
2022-10-21T01:50:12.794Z,3.6
2022-10-21T01:50:32.853Z,3.3
2022-10-21T01:50:52.933Z,2.7
2022-10-21T01:51:13.116Z,2.1
2022-10-21T01:51:33.046Z,2.1
2022-10-21T01:51:53.134Z,1.9
2022-10-21T01:52:13.214Z,2.4
2022-10-21T01:52:33.306Z,2.5
2022-10-21T01:52:53.395Z,3.1
2022-10-21T01:53:13.475Z,4.3
2022-10-21T01:53:33.565Z,4.3
2022-10-21T01:53:53.611Z,2.9
2022-10-21T01:54:13.696Z,2.7
2022-10-21T01:54:33.768Z,2.7
2022-10-21T01:54:53.833Z,2.3
2022-10-21T01:55:13.918Z,2.7
2022-10-21T01:55:34.045Z,2.3
2022-10-21T01:55:54.107Z,2.7
2022-10-21T01:56:14.175Z,2.5
2022-10-21T01:56:34.253Z,2.1
2022-10-21T01:56:54.343Z,2.1
2022-10-21T01:57:14.410Z,1.6
2022-10-21T01:57:34.494Z,1.4
2022-10-21T01:57:54.592Z,1.6
2022-10-21T01:58:14.662Z,1.8
2022-10-21T01:58:34.726Z,1.8
2022-10-21T01:58:54.788Z,2.3
2022-10-21T01:59:14.857Z,2.5
2022-10-21T01:59:34.919Z,2.3
2022-10-21T01:59:55.003Z,2.3
2022-10-21T02:00:15.211Z,2.1
2022-10-21T02:00:35.133Z,1.8
2022-10-21T02:00:55.229Z,1.8
2022-10-21T02:01:15.311Z,1.6
2022-10-21T02:01:35.422Z,1.8
2022-10-21T02:01:55.419Z,1.6
2022-10-21T02:02:15.480Z,1.4
2022-10-21T02:02:35.831Z,1.4
2022-10-21T02:02:55.682Z,2
2022-10-21T02:03:15.717Z,2.1
2022-10-21T02:03:35.798Z,1.8
2022-10-21T02:03:55.875Z,2.3
2022-10-21T02:04:15.972Z,2
2022-10-21T02:04:36.027Z,1.6
2022-10-21T02:04:56.110Z,2.1
2022-10-21T02:05:16.207Z,2.5
2022-10-21T02:05:36.303Z,2.4
2022-10-21T02:05:56.400Z,1.8
2022-10-21T02:06:16.453Z,1.8
2022-10-21T02:06:36.521Z,2
2022-10-21T02:06:56.574Z,2.2
2022-10-21T02:07:16.656Z,2
2022-10-21T02:07:36.756Z,1.8
2022-10-21T02:07:56.859Z,2.6
2022-10-21T02:08:16.933Z,3.4
2022-10-21T02:08:37.076Z,4.7
2022-10-21T02:08:57.159Z,4.7
2022-10-21T02:09:17.175Z,3.2
2022-10-21T02:09:37.252Z,4.7
2022-10-21T02:09:57.296Z,3.7
2022-10-21T02:10:17.369Z,3
2022-10-21T02:10:37.477Z,2.4
2022-10-21T02:10:57.569Z,4.2
2022-10-21T02:11:17.632Z,3.9
2022-10-21T02:11:37.710Z,3
2022-10-21T02:11:57.777Z,2.3
2022-10-21T02:12:17.865Z,3
2022-10-21T02:12:38.201Z,3.5
2022-10-21T02:12:57.977Z,2.5
2022-10-21T02:13:18.077Z,2.2
2022-10-21T02:13:38.132Z,2.4
2022-10-21T02:13:58.225Z,2.2
2022-10-21T02:14:18.294Z,2.6
2022-10-21T02:14:38.368Z,3.2
2022-10-21T02:14:58.438Z,3.4
2022-10-21T02:15:18.483Z,3
2022-10-21T02:15:38.570Z,2.5
2022-10-21T02:15:58.628Z,3.9
2022-10-21T02:16:18.677Z,3.5
2022-10-21T02:16:38.743Z,3
2022-10-21T02:16:58.840Z,3.9
2022-10-21T02:17:18.937Z,3.7
2022-10-21T02:17:39.024Z,3
2022-10-21T02:17:59.097Z,2.6
2022-10-21T02:18:19.198Z,2.2
2022-10-21T02:18:39.275Z,2.6
2022-10-21T02:18:59.347Z,2.6
2022-10-21T02:19:19.567Z,3.4
2022-10-21T02:19:39.529Z,3.1
2022-10-21T02:19:59.606Z,4.4
2022-10-21T02:20:19.657Z,4.9
2022-10-21T02:20:39.744Z,4.1
2022-10-21T02:20:59.811Z,3
2022-10-21T02:21:19.876Z,2.4
2022-10-21T02:21:39.929Z,2.6
2022-10-21T02:22:00.029Z,3.7
2022-10-21T02:22:20.153Z,4.2
2022-10-21T02:22:40.656Z,3.9
2022-10-21T02:23:00.306Z,3
2022-10-21T02:23:20.344Z,3
2022-10-21T02:23:40.413Z,3
2022-10-21T02:24:00.488Z,3.1
2022-10-21T02:24:20.569Z,3.2
2022-10-21T02:24:40.641Z,3.9
2022-10-21T02:25:00.719Z,3
2022-10-21T02:25:20.785Z,3.2
2022-10-21T02:25:40.841Z,3
2022-10-21T02:26:00.905Z,4.4
2022-10-21T02:26:20.939Z,3.2
2022-10-21T02:26:41.013Z,3.5
2022-10-21T02:27:01.082Z,3.2
2022-10-21T02:27:21.173Z,3.2
2022-10-21T02:27:41.252Z,3.9
2022-10-21T02:28:01.322Z,3.2
2022-10-21T02:28:21.372Z,3.9
2022-10-21T02:28:41.441Z,3
2022-10-21T02:29:01.524Z,3.6
2022-10-21T02:29:21.600Z,3.6
2022-10-21T02:29:41.684Z,4.1
2022-10-21T02:30:01.765Z,3.2
2022-10-21T02:30:21.805Z,2.8
2022-10-21T02:30:41.885Z,3
2022-10-21T02:31:01.979Z,3.2
2022-10-21T02:31:22.075Z,2.6
2022-10-21T02:31:42.120Z,2.8
2022-10-21T02:32:02.225Z,3.9
2022-10-21T02:32:22.293Z,3.7
2022-10-21T02:32:42.371Z,3.2
2022-10-21T02:33:02.431Z,3
2022-10-21T02:33:22.490Z,2.6
2022-10-21T02:33:42.584Z,2.2
2022-10-21T02:34:02.671Z,2.2
2022-10-21T02:34:22.710Z,2
2022-10-21T02:34:42.801Z,2.4
2022-10-21T02:35:02.841Z,3
2022-10-21T02:35:22.912Z,2.6
2022-10-21T02:35:42.977Z,3.2
2022-10-21T02:36:03.035Z,4.1
2022-10-21T02:36:23.122Z,4.4
2022-10-21T02:36:43.195Z,4.7
2022-10-21T02:37:03.249Z,5
2022-10-21T02:37:23.297Z,3.4
2022-10-21T02:37:43.407Z,3.2
2022-10-21T02:38:03.463Z,4.2
2022-10-21T02:38:23.534Z,3.2
2022-10-21T02:38:43.611Z,3
2022-10-21T02:39:03.693Z,3.9
2022-10-21T02:39:23.755Z,3
2022-10-21T02:39:43.837Z,3.2
2022-10-21T02:40:03.939Z,3.5
2022-10-21T02:40:24.014Z,3.2
2022-10-21T02:40:44.129Z,3
2022-10-21T02:41:04.197Z,3
2022-10-21T02:41:24.293Z,3.9
2022-10-21T02:41:44.374Z,3.2
2022-10-21T02:42:04.444Z,3
2022-10-21T02:42:24.497Z,3.2
2022-10-21T02:42:44.550Z,3.9
2022-10-21T02:43:04.617Z,3.9
2022-10-21T02:43:24.710Z,3.4
2022-10-21T02:43:44.754Z,3.4
2022-10-21T02:44:04.845Z,3.9
2022-10-21T02:44:24.904Z,3.9
2022-10-21T02:44:44.970Z,4.1
2022-10-21T02:45:05.067Z,3.6
2022-10-21T02:45:25.149Z,3.2
2022-10-21T02:45:45.244Z,3.2
2022-10-21T02:46:05.352Z,2.8
2022-10-21T02:46:25.411Z,2.4
2022-10-21T02:46:45.502Z,3
2022-10-21T02:47:05.640Z,2.8
2022-10-21T02:47:25.659Z,3.2
2022-10-21T02:47:45.714Z,3.4
2022-10-21T02:48:05.808Z,2.8
2022-10-21T02:48:25.880Z,3.6
2022-10-21T02:48:45.937Z,3.7
2022-10-21T02:49:06.025Z,3.7
2022-10-21T02:49:26.140Z,3
2022-10-21T02:49:46.194Z,2.8
2022-10-21T02:50:06.270Z,3.4
2022-10-21T02:50:26.336Z,3.7
2022-10-21T02:50:46.405Z,3.4
2022-10-21T02:51:06.495Z,3.9
2022-10-21T02:51:26.552Z,4.9
2022-10-21T02:51:46.632Z,3.9
2022-10-21T02:52:06.696Z,4.4
2022-10-21T02:52:26.774Z,4.7
2022-10-21T02:52:46.832Z,3.7
2022-10-21T02:53:06.891Z,3.9
2022-10-21T02:53:26.973Z,3.9
2022-10-21T02:53:47.031Z,3.2
2022-10-21T02:54:07.095Z,3
2022-10-21T02:54:27.186Z,3
2022-10-21T02:54:47.237Z,2.8
2022-10-21T02:55:07.323Z,2.8
2022-10-21T02:55:27.399Z,4.2
2022-10-21T02:55:47.484Z,3.9
2022-10-21T02:56:07.541Z,3.7
2022-10-21T02:56:27.617Z,3.3
2022-10-21T02:56:47.673Z,3.7
2022-10-21T02:57:07.757Z,5.6
2022-10-21T02:57:27.821Z,5
2022-10-21T02:57:47.897Z,5
2022-10-21T02:58:07.967Z,4.7
2022-10-21T02:58:28.057Z,4.2
2022-10-21T02:58:48.160Z,4.2
2022-10-21T02:59:08.224Z,3.7
2022-10-21T02:59:28.304Z,3.7
2022-10-21T02:59:48.368Z,3
2022-10-21T03:00:08.455Z,3.2
2022-10-21T03:00:32.078Z,3.9
2022-10-21T03:00:48.695Z,3.4
2022-10-21T03:01:08.840Z,4.4
2022-10-21T03:01:28.880Z,3.2
2022-10-21T03:01:48.889Z,4.2
2022-10-21T03:02:08.931Z,4.4
2022-10-21T03:02:29.014Z,4.2
2022-10-21T03:02:49.110Z,3.2
2022-10-21T03:03:09.191Z,4.1
2022-10-21T03:03:29.279Z,3.6
2022-10-21T03:03:49.356Z,3.9
2022-10-21T03:04:09.404Z,3.9
2022-10-21T03:04:29.467Z,3.9
2022-10-21T03:04:49.553Z,3.4
2022-10-21T03:05:09.638Z,3
2022-10-21T03:05:29.717Z,3.6
2022-10-21T03:05:49.804Z,3.4
2022-10-21T03:06:09.910Z,4.2
2022-10-21T03:06:29.974Z,3.6
2022-10-21T03:06:50.037Z,4.1
2022-10-21T03:07:10.104Z,3.8
2022-10-21T03:07:30.171Z,3.4
2022-10-21T03:07:50.271Z,2.7
2022-10-21T03:08:10.314Z,3.4
2022-10-21T03:08:30.445Z,3.8
2022-10-21T03:08:50.498Z,4.1
2022-10-21T03:09:10.528Z,4.1
2022-10-21T03:09:30.589Z,4.3
2022-10-21T03:09:50.655Z,3.6
2022-10-21T03:10:10.728Z,3.2
2022-10-21T03:10:30.785Z,2.7
2022-10-21T03:10:53.141Z,2.5
2022-10-21T03:11:10.943Z,3.9
2022-10-21T03:11:31.009Z,4.2
2022-10-21T03:11:51.085Z,3.2
2022-10-21T03:12:11.164Z,5.1
2022-10-21T03:12:31.246Z,3.6
2022-10-21T03:12:51.345Z,3.6
2022-10-21T03:13:11.386Z,3.1
2022-10-21T03:13:31.433Z,2.7
2022-10-21T03:13:51.507Z,3.4
2022-10-21T03:14:11.577Z,4.1
2022-10-21T03:14:31.631Z,4.9
2022-10-21T03:14:51.722Z,3.2
2022-10-21T03:15:11.759Z,3.9
2022-10-21T03:15:31.839Z,5.1
2022-10-21T03:15:51.904Z,3.9
2022-10-21T03:16:11.988Z,3.8
2022-10-21T03:16:32.026Z,4.6
2022-10-21T03:16:52.104Z,3.9
2022-10-21T03:17:12.182Z,3.2
2022-10-21T03:17:32.226Z,3.5
2022-10-21T03:17:52.313Z,3.2
2022-10-21T03:18:12.378Z,2.7
2022-10-21T03:18:32.467Z,2.7
2022-10-21T03:18:52.529Z,2.9
2022-10-21T03:19:12.590Z,3.2
2022-10-21T03:19:32.665Z,3
2022-10-21T03:19:52.765Z,3
2022-10-21T03:20:12.829Z,4.9
2022-10-21T03:20:32.898Z,4.1
2022-10-21T03:20:53.001Z,3.6
2022-10-21T03:21:13.081Z,5.2
2022-10-21T03:21:33.180Z,4.2
2022-10-21T03:21:53.247Z,4.2
2022-10-21T03:22:13.317Z,3.2
2022-10-21T03:22:33.381Z,3.5
2022-10-21T03:22:53.463Z,3
2022-10-21T03:23:13.511Z,3.9
2022-10-21T03:23:33.602Z,4.7
2022-10-21T03:23:53.686Z,4
2022-10-21T03:24:19.873Z,3.5
2022-10-21T03:24:33.828Z,3
2022-10-21T03:24:53.897Z,3
2022-10-21T03:25:13.996Z,3.2
2022-10-21T03:25:35.656Z,3.3
2022-10-21T03:25:54.166Z,3.7
2022-10-21T03:26:14.256Z,4.4
2022-10-21T03:26:34.360Z,3.9
2022-10-21T03:26:54.447Z,3.5
2022-10-21T03:27:14.539Z,3.3
2022-10-21T03:27:34.616Z,3.5
2022-10-21T03:27:54.681Z,3.1
2022-10-21T03:28:14.770Z,3.1
2022-10-21T03:28:34.847Z,3.1
2022-10-21T03:28:54.917Z,3.1
2022-10-21T03:29:14.988Z,3.3
2022-10-21T03:29:35.049Z,3.1
2022-10-21T03:29:55.151Z,3.5
2022-10-21T03:30:15.214Z,4.8
2022-10-21T03:30:35.294Z,4
2022-10-21T03:30:55.366Z,4.8
2022-10-21T03:31:15.481Z,4.5
2022-10-21T03:31:35.537Z,4.2
2022-10-21T03:31:55.616Z,4.5
2022-10-21T03:32:15.699Z,3.8
2022-10-21T03:32:36.053Z,3.3
2022-10-21T03:32:55.866Z,3.3
2022-10-21T03:33:15.945Z,5.3
2022-10-21T03:33:36.041Z,5.7
2022-10-21T03:33:56.128Z,5.2
2022-10-21T03:34:16.202Z,4.6
2022-10-21T03:34:36.275Z,6.7
2022-10-21T03:34:56.384Z,5.1
2022-10-21T03:35:16.426Z,6.1
2022-10-21T03:35:36.497Z,5.4
2022-10-21T03:35:56.587Z,6.7
2022-10-21T03:36:16.666Z,6.3
2022-10-21T03:36:36.722Z,6.1
2022-10-21T03:36:56.797Z,5.4
2022-10-21T03:37:16.903Z,3.8
2022-10-21T03:37:36.968Z,4.8
2022-10-21T03:38:17.143Z,4.5
2022-10-21T03:38:37.250Z,6.8
2022-10-21T03:38:57.315Z,4.3
2022-10-21T03:39:17.384Z,4.6
2022-10-21T03:39:37.453Z,3.5
2022-10-21T03:39:57.541Z,4
2022-10-21T03:40:17.607Z,5.7
2022-10-21T03:40:37.689Z,4.5
2022-10-21T03:40:57.765Z,3.7
2022-10-21T03:41:17.831Z,3.7
2022-10-21T03:41:37.889Z,4
2022-10-21T03:41:57.943Z,4.5
2022-10-21T03:42:18.031Z,3.9
2022-10-21T03:42:38.290Z,4.5
2022-10-21T03:42:58.103Z,4.5
2022-10-21T03:43:18.201Z,7
2022-10-21T03:43:38.258Z,5
2022-10-21T03:43:58.323Z,4.5
2022-10-21T03:44:18.433Z,4
2022-10-21T03:44:38.484Z,3.7
2022-10-21T03:44:58.530Z,5.3
2022-10-21T03:45:18.624Z,5
2022-10-21T03:45:38.706Z,5.3
2022-10-21T03:45:58.790Z,5.1
2022-10-21T03:46:18.854Z,4.2
2022-10-21T03:46:38.926Z,3.5
2022-10-21T03:46:59.005Z,2.7
2022-10-21T03:47:19.096Z,2.5
2022-10-21T03:47:39.173Z,2.5
2022-10-21T03:47:59.267Z,2.5
2022-10-21T03:48:19.297Z,2.5
2022-10-21T03:48:39.377Z,2.3
2022-10-21T03:49:03.032Z,2.5
2022-10-21T03:49:21.405Z,2.5
2022-10-21T03:49:39.612Z,2.7
2022-10-21T03:49:59.661Z,4
2022-10-21T03:50:23.663Z,4
2022-10-21T03:50:39.811Z,3.3
2022-10-21T03:50:59.928Z,3.1
2022-10-21T03:51:20.006Z,6
2022-10-21T03:51:40.052Z,4
2022-10-21T03:52:00.149Z,3.8
2022-10-21T03:52:20.228Z,3.6
2022-10-21T03:52:40.687Z,2.9
2022-10-21T03:53:00.356Z,2.5
2022-10-21T03:53:38.171Z,2.1
2022-10-21T03:53:44.012Z,1.9
2022-10-21T03:54:00.548Z,1.9
2022-10-21T03:54:20.612Z,3.5
2022-10-21T03:54:40.706Z,3.1
2022-10-21T03:55:00.775Z,3.1
2022-10-21T03:55:20.979Z,3.1
2022-10-21T03:55:40.900Z,3.4
2022-10-21T03:56:00.956Z,3.1
2022-10-21T03:56:21.019Z,2.5
2022-10-21T03:56:41.103Z,4.4
2022-10-21T03:57:01.190Z,3.3
2022-10-21T03:57:21.262Z,4.9
2022-10-21T03:57:41.827Z,3.8
2022-10-21T03:58:01.449Z,2.9
2022-10-21T03:58:21.503Z,3.6
2022-10-21T03:58:41.592Z,3.4
2022-10-21T03:59:01.664Z,3.7
2022-10-21T03:59:21.730Z,3.6
2022-10-21T03:59:41.786Z,2.7
2022-10-21T04:00:01.945Z,2.9
2022-10-21T04:00:21.916Z,2.7
2022-10-21T04:00:42.019Z,2.7
2022-10-21T04:01:02.135Z,2.9
2022-10-21T04:01:22.279Z,3.4
2022-10-21T04:01:42.357Z,2.9
2022-10-21T04:02:02.470Z,2.8
2022-10-21T04:02:22.432Z,3.4
2022-10-21T04:02:42.500Z,3.1
2022-10-21T04:03:02.582Z,3.6
2022-10-21T04:03:22.644Z,4.4
2022-10-21T04:03:42.692Z,4.3
2022-10-21T04:04:02.777Z,3.8
2022-10-21T04:04:22.862Z,2.9
2022-10-21T04:04:42.946Z,2.5
2022-10-21T04:05:03.006Z,2.1
2022-10-21T04:05:23.056Z,2.4
2022-10-21T04:05:43.134Z,2.3
2022-10-21T04:06:03.198Z,2.3
2022-10-21T04:06:23.272Z,2.5
2022-10-21T04:06:43.334Z,2.3
2022-10-21T04:07:03.416Z,2.2
2022-10-21T04:07:23.484Z,2.1
2022-10-21T04:07:43.558Z,1.9
2022-10-21T04:08:03.633Z,2
2022-10-21T04:08:23.681Z,1.6
2022-10-21T04:08:43.859Z,2
2022-10-21T04:09:03.911Z,2.5
2022-10-21T04:09:23.909Z,2.7
2022-10-21T04:09:43.992Z,3.1
2022-10-21T04:10:04.059Z,3
2022-10-21T04:10:24.137Z,2.8
2022-10-21T04:10:44.229Z,3.4
2022-10-21T04:11:04.426Z,3
2022-10-21T04:11:24.303Z,2.8
2022-10-21T04:11:44.378Z,2.2
2022-10-21T04:12:04.435Z,2.5
2022-10-21T04:12:24.491Z,2.5
2022-10-21T04:12:44.559Z,3.2
2022-10-21T04:13:04.624Z,2.4
2022-10-21T04:13:24.684Z,2.1
2022-10-21T04:13:44.787Z,1.6
2022-10-21T04:14:04.864Z,1.8
2022-10-21T04:14:24.912Z,2.6
2022-10-21T04:14:45.006Z,2.4
2022-10-21T04:15:05.120Z,2.2
2022-10-21T04:15:25.199Z,2.1
2022-10-21T04:15:45.267Z,2.1
2022-10-21T04:16:05.353Z,3.2
2022-10-21T04:16:25.405Z,3.6
2022-10-21T04:16:47.915Z,3.6
2022-10-21T04:17:08.102Z,3.6
2022-10-21T04:17:25.648Z,4.1
2022-10-21T04:17:45.712Z,3.2
2022-10-21T04:18:05.786Z,3.9
2022-10-21T04:18:25.853Z,2.6
2022-10-21T04:18:45.932Z,3.2
2022-10-21T04:19:06.030Z,3
2022-10-21T04:19:26.092Z,3.7
2022-10-21T04:19:46.189Z,3
2022-10-21T04:20:06.278Z,2.8
2022-10-21T04:20:26.331Z,2.6
2022-10-21T04:20:46.388Z,4.2
2022-10-21T04:21:06.485Z,4.4
2022-10-21T04:21:26.567Z,4
2022-10-21T04:21:46.628Z,3.1
2022-10-21T04:22:06.698Z,5.3
2022-10-21T04:22:26.789Z,5.3
2022-10-21T04:22:46.860Z,4.4
2022-10-21T04:23:06.909Z,6.3
2022-10-21T04:23:26.984Z,4.5
2022-10-21T04:23:47.079Z,4.2
2022-10-21T04:24:07.151Z,3.1
2022-10-21T04:24:27.222Z,2.7
2022-10-21T04:24:47.275Z,3.3
2022-10-21T04:25:07.363Z,3.5
2022-10-21T04:25:27.440Z,4.5
2022-10-21T04:25:47.540Z,4.8
2022-10-21T04:26:07.628Z,4.5
2022-10-21T04:26:27.668Z,4.8
2022-10-21T04:26:47.777Z,6
2022-10-21T04:27:07.842Z,4.6
2022-10-21T04:27:27.921Z,4.3
2022-10-21T04:27:48.009Z,3.3
2022-10-21T04:28:08.065Z,3.8
2022-10-21T04:28:28.226Z,4
2022-10-21T04:28:48.225Z,3.3
2022-10-21T04:29:08.332Z,3.3
2022-10-21T04:29:28.410Z,2.6
2022-10-21T04:29:48.494Z,2.9
2022-10-21T04:30:08.559Z,4
2022-10-21T04:30:28.624Z,3.5
2022-10-21T04:30:48.673Z,2.9
2022-10-21T04:31:08.746Z,3.1
2022-10-21T04:31:32.053Z,2.7
2022-10-21T04:31:48.964Z,2.7
2022-10-21T04:32:08.962Z,4
2022-10-21T04:32:29.055Z,3.5
2022-10-21T04:32:49.090Z,3.5
2022-10-21T04:33:09.173Z,3.1
2022-10-21T04:33:29.232Z,3.3
2022-10-21T04:33:49.267Z,4.8
2022-10-21T04:34:09.352Z,4
2022-10-21T04:34:29.444Z,3.7
2022-10-21T04:34:49.495Z,4
2022-10-21T04:35:09.585Z,3.5
2022-10-21T04:35:29.676Z,3.5
2022-10-21T04:35:49.779Z,3.5
2022-10-21T04:36:09.829Z,3.7
2022-10-21T04:36:29.904Z,4.2
2022-10-21T04:36:49.986Z,3.5
2022-10-21T04:37:10.100Z,3.1
2022-10-21T04:37:30.140Z,2.7
2022-10-21T04:37:50.250Z,3.1
2022-10-21T04:38:10.327Z,3.3
2022-10-21T04:38:30.407Z,2.9
2022-10-21T04:38:50.497Z,3.3
2022-10-21T04:39:10.566Z,2.4
2022-10-21T04:39:30.643Z,2.6
2022-10-21T04:39:50.706Z,3.1
2022-10-21T04:40:10.782Z,3.7